sensor_id;sensor_type;location;lat;lon;timestamp;pressure;altitude;pressure_sealevel;temperature;humidity
72157;BME280;60035;52.122;5.406;2023-05-03T00:01:32;103181.34;;;5.94;77.62
72157;BME280;60035;52.122;5.406;2023-05-03T00:03:59;103177.94;;;5.94;77.82
72157;BME280;60035;52.122;5.406;2023-05-03T00:06:26;103162.78;;;5.97;77.73
72157;BME280;60035;52.122;5.406;2023-05-03T00:08:53;103163.69;;;5.99;77.73
72157;BME280;60035;52.122;5.406;2023-05-03T00:11:20;103170.28;;;5.94;77.87
72157;BME280;60035;52.122;5.406;2023-05-03T00:13:47;103165.13;;;5.91;77.74
72157;BME280;60035;52.122;5.406;2023-05-03T00:16:13;103168.44;;;5.88;78.26
72157;BME280;60035;52.122;5.406;2023-05-03T00:18:40;103165.13;;;5.91;77.84
72157;BME280;60035;52.122;5.406;2023-05-03T00:21:06;103162.34;;;5.81;78.14
72157;BME280;60035;52.122;5.406;2023-05-03T00:23:32;103167.09;;;5.69;78.03
72157;BME280;60035;52.122;5.406;2023-05-03T00:25:59;103170.03;;;5.54;78.63
72157;BME280;60035;52.122;5.406;2023-05-03T00:28:26;103176.53;;;5.44;78.49
72157;BME280;60035;52.122;5.406;2023-05-03T00:30:52;103180.50;;;5.34;78.56
72157;BME280;60035;52.122;5.406;2023-05-03T00:33:19;103176.19;;;5.32;79.10
72157;BME280;60035;52.122;5.406;2023-05-03T00:35:46;103178.00;;;5.36;78.78
72157;BME280;60035;52.122;5.406;2023-05-03T00:38:12;103179.56;;;5.32;78.96
72157;BME280;60035;52.122;5.406;2023-05-03T00:40:42;103177.94;;;5.34;79.21
72157;BME280;60035;52.122;5.406;2023-05-03T00:43:10;103170.38;;;5.36;79.01
72157;BME280;60035;52.122;5.406;2023-05-03T00:45:37;103175.28;;;5.31;79.42
72157;BME280;60035;52.122;5.406;2023-05-03T00:48:03;103172.72;;;5.30;79.21
72157;BME280;60035;52.122;5.406;2023-05-03T00:50:30;103171.81;;;5.28;79.51
72157;BME280;60035;52.122;5.406;2023-05-03T00:52:57;103176.03;;;5.27;79.35
72157;BME280;60035;52.122;5.406;2023-05-03T00:55:23;103176.78;;;5.25;79.83
72157;BME280;60035;52.122;5.406;2023-05-03T00:57:52;103173.25;;;5.20;80.15
72157;BME280;60035;52.122;5.406;2023-05-03T01:00:19;103174.97;;;5.21;80.02
72157;BME280;60035;52.122;5.406;2023-05-03T01:02:45;103171.47;;;5.17;80.38
72157;BME280;60035;52.122;5.406;2023-05-03T01:05:12;103174.69;;;5.11;80.29
72157;BME280;60035;52.122;5.406;2023-05-03T01:10:21;103171.19;;;5.08;80.36
72157;BME280;60035;52.122;5.406;2023-05-03T01:13:13;103170.94;;;5.00;80.53
72157;BME280;60035;52.122;5.406;2023-05-03T01:18:53;103174.16;;;4.94;80.74
72157;BME280;60035;52.122;5.406;2023-05-03T01:21:20;103174.97;;;4.93;81.08
72157;BME280;60035;52.122;5.406;2023-05-03T01:23:59;103177.38;;;4.89;80.89
72157;BME280;60035;52.122;5.406;2023-05-03T01:26:28;103176.19;;;4.79;81.49
72157;BME280;60035;52.122;5.406;2023-05-03T01:28:55;103181.94;;;4.73;81.78
72157;BME280;60035;52.122;5.406;2023-05-03T01:31:32;103179.41;;;4.73;82.21
72157;BME280;60035;52.122;5.406;2023-05-03T01:34:17;103176.06;;;4.74;82.11
72157;BME280;60035;52.122;5.406;2023-05-03T01:36:47;103176.88;;;4.73;82.17
72157;BME280;60035;52.122;5.406;2023-05-03T01:39:22;103167.47;;;4.71;82.43
72157;BME280;60035;52.122;5.406;2023-05-03T01:41:50;103170.00;;;4.71;82.52
72157;BME280;60035;52.122;5.406;2023-05-03T01:44:20;103170.00;;;4.71;82.51
72157;BME280;60035;52.122;5.406;2023-05-03T01:46:48;103174.19;;;4.69;83.10
72157;BME280;60035;52.122;5.406;2023-05-03T01:49:15;103164.75;;;4.64;83.11
72157;BME280;60035;52.122;5.406;2023-05-03T01:51:41;103165.34;;;4.57;83.74
72157;BME280;60035;52.122;5.406;2023-05-03T01:54:08;103164.44;;;4.55;84.37
72157;BME280;60035;52.122;5.406;2023-05-03T01:56:36;103170.28;;;4.53;84.79
72157;BME280;60035;52.122;5.406;2023-05-03T01:59:02;103171.91;;;4.50;84.82
72157;BME280;60035;52.122;5.406;2023-05-03T02:01:29;103175.38;;;4.53;85.01
72157;BME280;60035;52.122;5.406;2023-05-03T02:03:56;103166.88;;;4.52;84.70
72157;BME280;60035;52.122;5.406;2023-05-03T02:06:23;103167.59;;;4.48;84.70
72157;BME280;60035;52.122;5.406;2023-05-03T02:08:51;103167.53;;;4.46;84.49
72157;BME280;60035;52.122;5.406;2023-05-03T02:11:19;103164.94;;;4.45;84.38
72157;BME280;60035;52.122;5.406;2023-05-03T02:13:49;103168.34;;;4.45;83.68
72157;BME280;60035;52.122;5.406;2023-05-03T02:16:17;103159.53;;;4.34;83.84
72157;BME280;60035;52.122;5.406;2023-05-03T02:18:44;103155.91;;;4.27;84.12
72157;BME280;60035;52.122;5.406;2023-05-03T02:21:10;103156.59;;;4.23;84.09
72157;BME280;60035;52.122;5.406;2023-05-03T02:23:38;103155.53;;;4.16;84.26
72157;BME280;60035;52.122;5.406;2023-05-03T02:26:05;103148.00;;;4.18;84.50
72157;BME280;60035;52.122;5.406;2023-05-03T02:28:31;103142.78;;;4.15;84.81
72157;BME280;60035;52.122;5.406;2023-05-03T02:30:58;103141.81;;;4.11;85.00
72157;BME280;60035;52.122;5.406;2023-05-03T02:33:24;103135.91;;;4.11;84.73
72157;BME280;60035;52.122;5.406;2023-05-03T02:35:51;103135.91;;;4.11;84.81
72157;BME280;60035;52.122;5.406;2023-05-03T02:38:17;103135.53;;;4.00;84.31
72157;BME280;60035;52.122;5.406;2023-05-03T02:40:44;103131.88;;;3.92;85.16
72157;BME280;60035;52.122;5.406;2023-05-03T02:43:10;103130.19;;;3.92;85.25
72157;BME280;60035;52.122;5.406;2023-05-03T02:45:37;103132.66;;;3.91;85.44
72157;BME280;60035;52.122;5.406;2023-05-03T02:48:04;103130.84;;;3.87;85.65
72157;BME280;60035;52.122;5.406;2023-05-03T02:50:31;103124.03;;;3.86;85.88
72157;BME280;60035;52.122;5.406;2023-05-03T02:52:57;103122.31;;;3.84;86.18
72157;BME280;60035;52.122;5.406;2023-05-03T02:55:24;103122.16;;;3.80;86.13
72157;BME280;60035;52.122;5.406;2023-05-03T02:57:50;103127.03;;;3.75;86.42
72157;BME280;60035;52.122;5.406;2023-05-03T03:00:17;103124.19;;;3.66;86.80
72157;BME280;60035;52.122;5.406;2023-05-03T03:02:43;103125.81;;;3.64;87.02
72157;BME280;60035;52.122;5.406;2023-05-03T03:05:10;103125.16;;;3.70;86.76
72157;BME280;60035;52.122;5.406;2023-05-03T03:07:37;103139.44;;;3.67;86.63
72157;BME280;60035;52.122;5.406;2023-05-03T03:10:06;103144.31;;;3.61;86.28
72157;BME280;60035;52.122;5.406;2023-05-03T03:12:36;103138.25;;;3.58;86.49
72157;BME280;60035;52.122;5.406;2023-05-03T03:15:04;103133.97;;;3.57;86.46
72157;BME280;60035;52.122;5.406;2023-05-03T03:17:32;103149.06;;;3.54;86.21
72157;BME280;60035;52.122;5.406;2023-05-03T03:19:59;103143.78;;;3.47;86.36
72157;BME280;60035;52.122;5.406;2023-05-03T03:22:27;103143.47;;;3.40;86.60
72157;BME280;60035;52.122;5.406;2023-05-03T03:24:55;103151.81;;;3.37;87.17
72157;BME280;60035;52.122;5.406;2023-05-03T03:27:21;103146.06;;;3.41;87.09
72157;BME280;60035;52.122;5.406;2023-05-03T03:29:51;103143.47;;;3.40;86.99
72157;BME280;60035;52.122;5.406;2023-05-03T03:32:17;103144.38;;;3.40;86.99
72157;BME280;60035;52.122;5.406;2023-05-03T03:34:44;103143.53;;;3.41;87.07
72157;BME280;60035;52.122;5.406;2023-05-03T03:37:10;103151.78;;;3.36;87.01
72157;BME280;60035;52.122;5.406;2023-05-03T03:39:36;103151.38;;;3.25;87.35
72157;BME280;60035;52.122;5.406;2023-05-03T03:42:06;103158.72;;;3.19;87.77
72157;BME280;60035;52.122;5.406;2023-05-03T03:44:33;103146.75;;;3.14;87.86
72157;BME280;60035;52.122;5.406;2023-05-03T03:46:59;103148.47;;;3.15;87.74
72157;BME280;60035;52.122;5.406;2023-05-03T03:49:26;103151.00;;;3.15;87.77
72157;BME280;60035;52.122;5.406;2023-05-03T03:51:52;103155.09;;;3.12;88.06
72157;BME280;60035;52.122;5.406;2023-05-03T03:54:19;103161.72;;;3.08;88.27
72157;BME280;60035;52.122;5.406;2023-05-03T03:56:45;103154.94;;;3.07;88.23
72157;BME280;60035;52.122;5.406;2023-05-03T03:59:11;103170.84;;;3.05;88.51
72157;BME280;60035;52.122;5.406;2023-05-03T04:01:38;103162.31;;;3.03;88.64
72157;BME280;60035;52.122;5.406;2023-05-03T04:04:05;103166.34;;;2.97;89.08
72157;BME280;60035;52.122;5.406;2023-05-03T04:06:32;103165.44;;;2.95;89.67
72157;BME280;60035;52.122;5.406;2023-05-03T04:08:58;103166.97;;;2.92;90.00
72157;BME280;60035;52.122;5.406;2023-05-03T04:11:25;103163.44;;;2.88;90.68
72157;BME280;60035;52.122;5.406;2023-05-03T04:13:51;103165.16;;;2.89;91.79
72157;BME280;60035;52.122;5.406;2023-05-03T04:16:18;103158.50;;;2.91;92.19
72157;BME280;60035;52.122;5.406;2023-05-03T04:18:44;103157.94;;;2.98;91.97
72157;BME280;60035;52.122;5.406;2023-05-03T04:21:11;103170.84;;;3.05;91.99
72157;BME280;60035;52.122;5.406;2023-05-03T04:23:37;103170.09;;;3.07;91.57
72157;BME280;60035;52.122;5.406;2023-05-03T04:26:04;103179.34;;;3.07;91.48
72157;BME280;60035;52.122;5.406;2023-05-03T04:28:32;103174.13;;;3.02;91.51
72157;BME280;60035;52.122;5.406;2023-05-03T04:30:59;103194.31;;;3.00;91.48
72157;BME280;60035;52.122;5.406;2023-05-03T04:33:25;103190.03;;;2.99;91.40
72157;BME280;60035;52.122;5.406;2023-05-03T04:35:54;103196.69;;;2.97;91.78
72157;BME280;60035;52.122;5.406;2023-05-03T04:38:23;103206.81;;;2.97;91.76
72157;BME280;60035;52.122;5.406;2023-05-03T04:40:51;103209.34;;;2.97;92.16
72157;BME280;60035;52.122;5.406;2023-05-03T04:43:18;103211.94;;;2.99;92.43
72157;BME280;60035;52.122;5.406;2023-05-03T04:45:45;103211.28;;;3.03;92.43
72157;BME280;60035;52.122;5.406;2023-05-03T04:48:11;103213.09;;;3.06;92.43
72157;BME280;60035;52.122;5.406;2023-05-03T04:50:38;103215.84;;;3.12;92.47
72157;BME280;60035;52.122;5.406;2023-05-03T04:53:04;103223.56;;;3.15;92.58
72157;BME280;60035;52.122;5.406;2023-05-03T04:55:32;103222.75;;;3.16;92.48
72157;BME280;60035;52.122;5.406;2023-05-03T04:57:59;103220.31;;;3.17;92.43
72157;BME280;60035;52.122;5.406;2023-05-03T05:00:25;103216.88;;;3.17;92.59
72157;BME280;60035;52.122;5.406;2023-05-03T05:02:52;103217.94;;;3.22;92.58
72157;BME280;60035;52.122;5.406;2023-05-03T05:05:19;103215.72;;;3.30;92.78
72157;BME280;60035;52.122;5.406;2023-05-03T05:07:45;103216.63;;;3.32;92.41
72157;BME280;60035;52.122;5.406;2023-05-03T05:10:12;103213.53;;;3.39;92.60
72157;BME280;60035;52.122;5.406;2023-05-03T05:12:40;103212.25;;;3.50;92.56
72157;BME280;60035;52.122;5.406;2023-05-03T05:15:07;103215.22;;;3.61;92.35
72157;BME280;60035;52.122;5.406;2023-05-03T05:17:34;103205.44;;;3.71;92.40
72157;BME280;60035;52.122;5.406;2023-05-03T05:20:01;103212.44;;;3.78;92.58
72157;BME280;60035;52.122;5.406;2023-05-03T05:22:28;103217.72;;;3.82;92.91
72157;BME280;60035;52.122;5.406;2023-05-03T05:24:54;103220.72;;;3.96;93.69
72157;BME280;60035;52.122;5.406;2023-05-03T05:27:21;103217.88;;;4.11;93.99
72157;BME280;60035;52.122;5.406;2023-05-03T05:29:49;103218.44;;;4.27;94.12
72157;BME280;60035;52.122;5.406;2023-05-03T05:32:15;103219.75;;;4.40;93.79
72157;BME280;60035;52.122;5.406;2023-05-03T05:34:42;103216.81;;;4.53;93.67
72157;BME280;60035;52.122;5.406;2023-05-03T05:37:11;103229.13;;;4.68;93.11
72157;BME280;60035;52.122;5.406;2023-05-03T05:39:37;103218.53;;;4.80;92.80
72157;BME280;60035;52.122;5.406;2023-05-03T05:42:04;103221.53;;;4.94;92.17
72157;BME280;60035;52.122;5.406;2023-05-03T05:44:30;103222.81;;;5.07;91.90
72157;BME280;60035;52.122;5.406;2023-05-03T05:46:57;103213.84;;;5.18;90.67
72157;BME280;60035;52.122;5.406;2023-05-03T05:49:27;103214.22;;;5.30;89.66
72157;BME280;60035;52.122;5.406;2023-05-03T05:51:56;103219.69;;;5.43;88.83
72157;BME280;60035;52.122;5.406;2023-05-03T05:54:22;103211.56;;;5.55;87.58
72157;BME280;60035;52.122;5.406;2023-05-03T05:56:56;103219.50;;;5.65;85.67
72157;BME280;60035;52.122;5.406;2023-05-03T05:59:23;103213.88;;;5.76;84.55
72157;BME280;60035;52.122;5.406;2023-05-03T06:01:49;103216.69;;;5.85;83.10
72157;BME280;60035;52.122;5.406;2023-05-03T06:04:16;103212.00;;;5.99;82.59
72157;BME280;60035;52.122;5.406;2023-05-03T06:06:42;103214.91;;;6.11;81.39
72157;BME280;60035;52.122;5.406;2023-05-03T06:09:09;103216.00;;;6.21;80.11
72157;BME280;60035;52.122;5.406;2023-05-03T06:11:50;103220.53;;;6.31;78.98
72157;BME280;60035;52.122;5.406;2023-05-03T06:14:16;103214.09;;;6.44;78.75
72157;BME280;60035;52.122;5.406;2023-05-03T06:16:45;103217.59;;;6.49;77.95
72157;BME280;60035;52.122;5.406;2023-05-03T06:19:11;103223.03;;;6.62;77.38
72157;BME280;60035;52.122;5.406;2023-05-03T06:21:38;103218.16;;;6.71;76.74
72157;BME280;60035;52.122;5.406;2023-05-03T06:24:05;103217.47;;;6.78;75.97
72157;BME280;60035;52.122;5.406;2023-05-03T06:26:31;103217.59;;;6.83;75.03
72157;BME280;60035;52.122;5.406;2023-05-03T06:28:58;103219.56;;;6.93;75.02
72157;BME280;60035;52.122;5.406;2023-05-03T06:31:26;103212.03;;;6.99;74.59
72157;BME280;60035;52.122;5.406;2023-05-03T06:33:52;103209.72;;;7.09;74.36
72157;BME280;60035;52.122;5.406;2023-05-03T06:36:19;103215.94;;;7.20;74.25
72157;BME280;60035;52.122;5.406;2023-05-03T06:38:46;103210.16;;;7.29;73.44
72157;BME280;60035;52.122;5.406;2023-05-03T06:41:12;103200.25;;;7.41;73.71
72157;BME280;60035;52.122;5.406;2023-05-03T06:43:39;103207.22;;;7.50;72.93
72157;BME280;60035;52.122;5.406;2023-05-03T06:46:05;103195.56;;;7.60;72.62
72157;BME280;60035;52.122;5.406;2023-05-03T06:48:32;103199.09;;;7.66;71.87
72157;BME280;60035;52.122;5.406;2023-05-03T06:50:58;103204.28;;;7.71;71.34
72157;BME280;60035;52.122;5.406;2023-05-03T06:53:28;103206.19;;;7.81;71.48
72157;BME280;60035;52.122;5.406;2023-05-03T06:55:54;103194.50;;;7.91;70.88
72157;BME280;60035;52.122;5.406;2023-05-03T06:58:21;103203.19;;;8.01;70.42
72157;BME280;60035;52.122;5.406;2023-05-03T07:00:51;103197.31;;;8.07;69.58
72157;BME280;60035;52.122;5.406;2023-05-03T07:03:18;103196.66;;;8.15;69.79
72157;BME280;60035;52.122;5.406;2023-05-03T07:05:44;103194.28;;;8.26;69.22
72157;BME280;60035;52.122;5.406;2023-05-03T07:08:12;103198.72;;;8.35;69.14
72157;BME280;60035;52.122;5.406;2023-05-03T07:10:38;103188.66;;;8.44;68.34
72157;BME280;60035;52.122;5.406;2023-05-03T07:13:07;103188.84;;;8.54;67.78
72157;BME280;60035;52.122;5.406;2023-05-03T07:15:33;103189.84;;;8.63;67.14
72157;BME280;60035;52.122;5.406;2023-05-03T07:18:00;103184.78;;;8.66;66.50
72157;BME280;60035;52.122;5.406;2023-05-03T07:20:26;103179.78;;;8.71;66.23
72157;BME280;60035;52.122;5.406;2023-05-03T07:22:53;103184.13;;;8.78;65.76
72157;BME280;60035;52.122;5.406;2023-05-03T07:25:21;103186.91;;;8.91;65.69
72157;BME280;60035;52.122;5.406;2023-05-03T07:27:47;103172.53;;;8.99;65.18
72157;BME280;60035;52.122;5.406;2023-05-03T07:30:14;103169.16;;;9.00;64.12
72157;BME280;60035;52.122;5.406;2023-05-03T07:32:41;103163.22;;;9.01;64.49
72157;BME280;60035;52.122;5.406;2023-05-03T07:35:08;103157.38;;;9.11;64.61
72157;BME280;60035;52.122;5.406;2023-05-03T07:37:34;103158.38;;;9.21;63.86
72157;BME280;60035;52.122;5.406;2023-05-03T07:40:01;103146.44;;;9.23;63.73
72157;BME280;60035;52.122;5.406;2023-05-03T07:42:31;103144.09;;;9.37;63.73
72157;BME280;60035;52.122;5.406;2023-05-03T07:44:58;103148.47;;;9.46;63.51
72157;BME280;60035;52.122;5.406;2023-05-03T07:47:33;103143.44;;;9.54;63.21
72157;BME280;60035;52.122;5.406;2023-05-03T07:50:03;103138.38;;;9.57;62.96
72157;BME280;60035;52.122;5.406;2023-05-03T07:52:38;103136.84;;;9.74;63.25
72157;BME280;60035;52.122;5.406;2023-05-03T07:55:05;103136.13;;;9.88;62.87
72157;BME280;60035;52.122;5.406;2023-05-03T07:57:32;103133.66;;;9.95;62.55
72157;BME280;60035;52.122;5.406;2023-05-03T07:59:58;103140.53;;;10.01;62.16
72157;BME280;60035;52.122;5.406;2023-05-03T08:02:25;103137.97;;;9.98;62.05
72157;BME280;60035;52.122;5.406;2023-05-03T08:04:52;103135.47;;;10.06;61.64
72157;BME280;60035;52.122;5.406;2023-05-03T08:07:20;103132.09;;;10.10;61.09
72157;BME280;60035;52.122;5.406;2023-05-03T08:09:47;103129.66;;;10.22;60.92
72157;BME280;60035;52.122;5.406;2023-05-03T08:12:14;103135.72;;;10.33;59.93
72157;BME280;60035;52.122;5.406;2023-05-03T08:14:41;103135.78;;;10.38;59.78
72157;BME280;60035;52.122;5.406;2023-05-03T08:17:07;103128.97;;;10.40;58.98
72157;BME280;60035;52.122;5.406;2023-05-03T08:19:34;103137.50;;;10.41;58.79
72157;BME280;60035;52.122;5.406;2023-05-03T08:22:01;103130.75;;;10.47;58.34
72157;BME280;60035;52.122;5.406;2023-05-03T08:24:28;103128.31;;;10.63;58.00
72157;BME280;60035;52.122;5.406;2023-05-03T08:26:55;103117.28;;;10.75;58.27
72157;BME280;60035;52.122;5.406;2023-05-03T08:29:21;103123.34;;;10.88;57.33
72157;BME280;60035;52.122;5.406;2023-05-03T08:31:47;103107.09;;;10.86;56.80
72157;BME280;60035;52.122;5.406;2023-05-03T08:34:14;103101.16;;;10.96;57.09
72157;BME280;60035;52.122;5.406;2023-05-03T08:36:41;103102.94;;;11.08;56.78
72157;BME280;60035;52.122;5.406;2023-05-03T08:39:08;103102.09;;;11.15;56.51
72157;BME280;60035;52.122;5.406;2023-05-03T08:41:35;103103.03;;;11.26;56.44
72157;BME280;60035;52.122;5.406;2023-05-03T08:44:02;103099.63;;;11.32;55.82
72157;BME280;60035;52.122;5.406;2023-05-03T08:46:31;103103.94;;;11.42;55.43
72157;BME280;60035;52.122;5.406;2023-05-03T08:48:57;103114.22;;;11.52;55.01
72157;BME280;60035;52.122;5.406;2023-05-03T08:51:28;103118.50;;;11.54;54.52
72157;BME280;60035;52.122;5.406;2023-05-03T08:53:54;103118.53;;;11.65;54.33
72157;BME280;60035;52.122;5.406;2023-05-03T08:56:43;103115.16;;;11.80;54.25
72157;BME280;60035;52.122;5.406;2023-05-03T08:59:10;103118.59;;;11.87;53.40
72157;BME280;60035;52.122;5.406;2023-05-03T09:01:40;103116.03;;;11.93;52.86
72157;BME280;60035;52.122;5.406;2023-05-03T09:04:08;103115.16;;;11.88;51.78
72157;BME280;60035;52.122;5.406;2023-05-03T09:06:36;103117.75;;;11.91;52.72
72157;BME280;60035;52.122;5.406;2023-05-03T09:09:05;103122.94;;;12.06;52.26
72157;BME280;60035;52.122;5.406;2023-05-03T09:11:37;103126.38;;;12.24;52.29
72157;BME280;60035;52.122;5.406;2023-05-03T09:16:38;103116.94;;;12.54;51.00
72157;BME280;60035;52.122;5.406;2023-05-03T09:19:07;103119.50;;;12.54;50.73
72157;BME280;60035;52.122;5.406;2023-05-03T09:21:45;103129.78;;;12.69;50.48
72157;BME280;60035;52.122;5.406;2023-05-03T09:26:42;103122.00;;;12.91;49.87
72157;BME280;60035;52.122;5.406;2023-05-03T09:29:09;103116.81;;;13.08;50.50
72157;BME280;60035;52.122;5.406;2023-05-03T09:31:36;103118.47;;;13.23;50.15
72157;BME280;60035;52.122;5.406;2023-05-03T09:34:20;103118.53;;;13.16;49.41
72157;BME280;60035;52.122;5.406;2023-05-03T09:36:47;103120.22;;;13.14;49.33
72157;BME280;60035;52.122;5.406;2023-05-03T09:39:17;103124.50;;;13.19;49.18
72157;BME280;60035;52.122;5.406;2023-05-03T09:41:45;103121.94;;;13.22;49.40
72157;BME280;60035;52.122;5.406;2023-05-03T09:44:12;103121.88;;;13.39;49.33
72157;BME280;60035;52.122;5.406;2023-05-03T09:46:38;103114.94;;;13.58;49.60
72157;BME280;60035;52.122;5.406;2023-05-03T09:49:05;103117.44;;;13.69;48.51
72157;BME280;60035;52.122;5.406;2023-05-03T09:51:32;103129.41;;;13.79;48.22
72157;BME280;60035;52.122;5.406;2023-05-03T09:53:59;103125.06;;;13.81;47.36
72157;BME280;60035;52.122;5.406;2023-05-03T09:56:27;103120.78;;;13.85;47.64
72157;BME280;60035;52.122;5.406;2023-05-03T09:58:54;103116.44;;;13.90;47.11
72157;BME280;60035;52.122;5.406;2023-05-03T10:01:23;103123.31;;;13.89;47.16
72157;BME280;60035;52.122;5.406;2023-05-03T10:03:50;103114.66;;;13.99;47.53
72157;BME280;60035;52.122;5.406;2023-05-03T10:11:42;103096.22;;;14.49;46.53
72157;BME280;60035;52.122;5.406;2023-05-03T10:14:11;103096.81;;;14.76;46.35
72157;BME280;60035;52.122;5.406;2023-05-03T10:16:42;103094.75;;;15.04;45.92
72157;BME280;60035;52.122;5.406;2023-05-03T10:19:23;103090.41;;;15.11;44.90
72157;BME280;60035;52.122;5.406;2023-05-03T10:22:05;103092.06;;;15.16;45.09
72157;BME280;60035;52.122;5.406;2023-05-03T10:24:37;103078.09;;;15.31;45.10
72157;BME280;60035;52.122;5.406;2023-05-03T10:27:06;103079.69;;;15.40;44.80
72157;BME280;60035;52.122;5.406;2023-05-03T10:32:01;103066.91;;;15.31;44.13
72157;BME280;60035;52.122;5.406;2023-05-03T10:34:34;103072.09;;;15.28;44.56
72157;BME280;60035;52.122;5.406;2023-05-03T10:37:09;103073.75;;;15.35;44.47
72157;BME280;60035;52.122;5.406;2023-05-03T10:39:43;103069.97;;;15.58;44.04
72157;BME280;60035;52.122;5.406;2023-05-03T10:42:10;103071.41;;;15.77;43.50
72157;BME280;60035;52.122;5.406;2023-05-03T10:44:50;103078.03;;;15.97;42.85
72157;BME280;60035;52.122;5.406;2023-05-03T10:47:19;103075.34;;;16.02;41.84
72157;BME280;60035;52.122;5.406;2023-05-03T10:55:11;103067.44;;;16.59;41.72
72157;BME280;60035;52.122;5.406;2023-05-03T10:57:40;103067.66;;;16.48;40.31
72157;BME280;60035;52.122;5.406;2023-05-03T11:00:13;103074.19;;;16.20;41.18
72157;BME280;60035;52.122;5.406;2023-05-03T11:05:30;103063.34;;;16.47;40.44
72157;BME280;60035;52.122;5.406;2023-05-03T11:10:34;103052.41;;;16.78;40.01
72157;BME280;60035;52.122;5.406;2023-05-03T11:13:01;103050.88;;;16.68;39.47
72157;BME280;60035;52.122;5.406;2023-05-03T11:15:28;103051.22;;;16.49;39.98
72157;BME280;60035;52.122;5.406;2023-05-03T11:17:54;103035.34;;;16.68;39.81
72157;BME280;60035;52.122;5.406;2023-05-03T11:20:21;103037.63;;;16.83;38.88
72157;BME280;60035;52.122;5.406;2023-05-03T11:22:48;103030.59;;;16.92;39.60
72157;BME280;60035;52.122;5.406;2023-05-03T11:25:15;103027.47;;;17.17;39.10
72157;BME280;60035;52.122;5.406;2023-05-03T11:27:44;103021.88;;;17.35;38.66
72157;BME280;60035;52.122;5.406;2023-05-03T11:30:13;103021.31;;;17.60;39.25
72157;BME280;60035;52.122;5.406;2023-05-03T11:32:41;103021.88;;;17.73;37.87
72157;BME280;60035;52.122;5.406;2023-05-03T11:35:08;103019.03;;;17.82;38.32
72157;BME280;60035;52.122;5.406;2023-05-03T11:37:36;103021.56;;;17.85;38.03
72157;BME280;60035;52.122;5.406;2023-05-03T11:40:02;103018.38;;;18.10;38.15
72157;BME280;60035;52.122;5.406;2023-05-03T11:42:30;103008.59;;;18.20;36.85
72157;BME280;60035;52.122;5.406;2023-05-03T11:44:56;103008.69;;;18.17;36.56
72157;BME280;60035;52.122;5.406;2023-05-03T11:47:23;103018.53;;;18.04;37.09
72157;BME280;60035;52.122;5.406;2023-05-03T11:49:54;103005.09;;;18.21;36.73
72157;BME280;60035;52.122;5.406;2023-05-03T11:52:25;103002.91;;;18.05;36.77
72157;BME280;60035;52.122;5.406;2023-05-03T11:54:53;103000.31;;;18.38;36.93
72157;BME280;60035;52.122;5.406;2023-05-03T11:57:21;102995.47;;;18.56;36.40
72157;BME280;60035;52.122;5.406;2023-05-03T11:59:53;102999.13;;;18.78;36.50
72157;BME280;60035;52.122;5.406;2023-05-03T12:02:20;102995.75;;;19.06;36.05
72157;BME280;60035;52.122;5.406;2023-05-03T12:04:47;102987.88;;;19.09;34.99
72157;BME280;60035;52.122;5.406;2023-05-03T12:07:15;102991.53;;;19.02;34.41
72157;BME280;60035;52.122;5.406;2023-05-03T12:09:45;102984.13;;;18.90;35.72
72157;BME280;60035;52.122;5.406;2023-05-03T12:12:25;102987.72;;;19.14;34.96
72157;BME280;60035;52.122;5.406;2023-05-03T12:14:58;102974.56;;;18.92;34.36
72157;BME280;60035;52.122;5.406;2023-05-03T12:17:38;102967.66;;;18.61;35.06
72157;BME280;60035;52.122;5.406;2023-05-03T12:20:15;102968.19;;;18.72;34.33
72157;BME280;60035;52.122;5.406;2023-05-03T12:22:49;102965.84;;;18.93;35.60
72157;BME280;60035;52.122;5.406;2023-05-03T12:25:18;102965.09;;;19.18;34.23
72157;BME280;60035;52.122;5.406;2023-05-03T12:27:46;102970.09;;;19.24;34.16
72157;BME280;60035;52.122;5.406;2023-05-03T12:30:33;102955.25;;;19.27;33.74
72157;BME280;60035;52.122;5.406;2023-05-03T12:33:00;102953.47;;;19.29;34.24
72157;BME280;60035;52.122;5.406;2023-05-03T12:35:30;102953.00;;;19.43;34.67
72157;BME280;60035;52.122;5.406;2023-05-03T12:38:00;102947.66;;;19.48;34.65
72157;BME280;60035;52.122;5.406;2023-05-03T12:40:29;102945.94;;;19.47;33.74
72157;BME280;60035;52.122;5.406;2023-05-03T12:42:59;102938.00;;;19.25;33.76
72157;BME280;60035;52.122;5.406;2023-05-03T12:45:27;102932.63;;;19.31;34.60
72157;BME280;60035;52.122;5.406;2023-05-03T12:47:59;102925.94;;;19.24;34.17
72157;BME280;60035;52.122;5.406;2023-05-03T12:50:26;102929.44;;;19.23;34.33
72157;BME280;60035;52.122;5.406;2023-05-03T12:52:57;102920.19;;;19.41;34.54
72157;BME280;60035;52.122;5.406;2023-05-03T12:55:28;102914.00;;;19.70;33.91
72157;BME280;60035;52.122;5.406;2023-05-03T12:58:01;102916.41;;;20.00;33.12
72157;BME280;60035;52.122;5.406;2023-05-03T13:00:30;102907.16;;;19.93;33.05
72157;BME280;60035;52.122;5.406;2023-05-03T13:03:02;102912.47;;;20.13;33.92
72157;BME280;60035;52.122;5.406;2023-05-03T13:05:32;102910.44;;;20.22;32.66
72157;BME280;60035;52.122;5.406;2023-05-03T13:08:01;102900.91;;;20.44;33.32
72157;BME280;60035;52.122;5.406;2023-05-03T13:10:38;102902.81;;;20.63;32.46
72157;BME280;60035;52.122;5.406;2023-05-03T13:13:07;102896.25;;;20.53;31.71
72157;BME280;60035;52.122;5.406;2023-05-03T13:15:34;102889.13;;;20.58;31.81
72157;BME280;60035;52.122;5.406;2023-05-03T13:18:04;102884.16;;;20.52;31.61
72157;BME280;60035;52.122;5.406;2023-05-03T13:20:32;102877.56;;;20.43;32.08
72157;BME280;60035;52.122;5.406;2023-05-03T13:22:59;102881.59;;;20.50;31.56
72157;BME280;60035;52.122;5.406;2023-05-03T13:25:26;102875.06;;;20.40;31.62
72157;BME280;60035;52.122;5.406;2023-05-03T13:27:52;102869.69;;;20.67;32.36
72157;BME280;60035;52.122;5.406;2023-05-03T13:30:22;102860.41;;;21.04;31.71